sensor_id;sensor_type;location;lat;lon;timestamp;P1;durP1;ratioP1;P2;durP2;ratioP2
18796;SDS011;9526;52.612;13.300;2022-07-06T00:01:09;2.78;;;1.15;;
18796;SDS011;9526;52.612;13.300;2022-07-06T00:03:33;2.53;;;1.15;;
18796;SDS011;9526;52.612;13.300;2022-07-06T00:05:56;4.03;;;1.60;;
18796;SDS011;9526;52.612;13.300;2022-07-06T00:08:22;4.13;;;1.40;;
18796;SDS011;9526;52.612;13.300;2022-07-06T00:10:46;4.50;;;1.50;;
18796;SDS011;9526;52.612;13.300;2022-07-06T00:13:09;2.75;;;1.42;;
18796;SDS011;9526;52.612;13.300;2022-07-06T00:15:33;1.98;;;1.30;;
18796;SDS011;9526;52.612;13.300;2022-07-06T00:17:57;2.05;;;1.30;;
18796;SDS011;9526;52.612;13.300;2022-07-06T00:20:21;3.83;;;1.30;;
18796;SDS011;9526;52.612;13.300;2022-07-06T00:22:44;3.65;;;1.20;;
18796;SDS011;9526;52.612;13.300;2022-07-06T00:25:09;3.63;;;1.55;;
18796;SDS011;9526;52.612;13.300;2022-07-06T00:27:33;3.33;;;1.45;;
18796;SDS011;9526;52.612;13.300;2022-07-06T00:29:57;4.68;;;1.48;;
18796;SDS011;9526;52.612;13.300;2022-07-06T00:32:21;3.40;;;1.42;;
18796;SDS011;9526;52.612;13.300;2022-07-06T00:34:44;2.38;;;1.38;;
18796;SDS011;9526;52.612;13.300;2022-07-06T00:37:08;2.25;;;1.33;;
18796;SDS011;9526;52.612;13.300;2022-07-06T00:39:32;2.28;;;1.30;;
18796;SDS011;9526;52.612;13.300;2022-07-06T00:41:57;1.50;;;1.40;;
18796;SDS011;9526;52.612;13.300;2022-07-06T00:44:21;6.35;;;1.60;;
18796;SDS011;9526;52.612;13.300;2022-07-06T00:46:45;2.63;;;1.40;;
18796;SDS011;9526;52.612;13.300;2022-07-06T00:49:09;6.22;;;1.25;;
18796;SDS011;9526;52.612;13.300;2022-07-06T00:51:53;3.60;;;1.40;;
18796;SDS011;9526;52.612;13.300;2022-07-06T00:54:17;4.30;;;1.60;;
18796;SDS011;9526;52.612;13.300;2022-07-06T00:56:41;4.10;;;1.83;;
18796;SDS011;9526;52.612;13.300;2022-07-06T00:59:06;4.13;;;1.58;;
18796;SDS011;9526;52.612;13.300;2022-07-06T01:01:30;5.53;;;1.48;;
18796;SDS011;9526;52.612;13.300;2022-07-06T01:03:54;5.63;;;1.50;;
18796;SDS011;9526;52.612;13.300;2022-07-06T01:06:18;2.22;;;1.33;;
18796;SDS011;9526;52.612;13.300;2022-07-06T01:08:42;4.82;;;1.70;;
18796;SDS011;9526;52.612;13.300;2022-07-06T01:11:05;6.47;;;1.90;;
18796;SDS011;9526;52.612;13.300;2022-07-06T01:13:31;4.00;;;1.50;;
18796;SDS011;9526;52.612;13.300;2022-07-06T01:15:57;2.67;;;1.60;;
18796;SDS011;9526;52.612;13.300;2022-07-06T01:18:21;3.40;;;1.55;;
18796;SDS011;9526;52.612;13.300;2022-07-06T01:20:47;8.00;;;1.92;;
18796;SDS011;9526;52.612;13.300;2022-07-06T01:23:11;2.75;;;1.85;;
18796;SDS011;9526;52.612;13.300;2022-07-06T01:25:35;3.25;;;1.73;;
18796;SDS011;9526;52.612;13.300;2022-07-06T01:28:00;5.03;;;1.77;;
18796;SDS011;9526;52.612;13.300;2022-07-06T01:30:24;2.97;;;1.50;;
18796;SDS011;9526;52.612;13.300;2022-07-06T01:32:48;5.28;;;1.50;;
18796;SDS011;9526;52.612;13.300;2022-07-06T01:35:13;4.43;;;2.13;;
18796;SDS011;9526;52.612;13.300;2022-07-06T01:37:39;5.68;;;1.75;;
18796;SDS011;9526;52.612;13.300;2022-07-06T01:40:05;4.15;;;1.48;;
18796;SDS011;9526;52.612;13.300;2022-07-06T01:42:31;3.70;;;1.60;;
18796;SDS011;9526;52.612;13.300;2022-07-06T01:44:55;4.75;;;1.60;;
18796;SDS011;9526;52.612;13.300;2022-07-06T01:47:19;3.78;;;1.83;;
18796;SDS011;9526;52.612;13.300;2022-07-06T01:49:45;2.45;;;1.27;;
18796;SDS011;9526;52.612;13.300;2022-07-06T01:52:09;3.90;;;1.42;;
18796;SDS011;9526;52.612;13.300;2022-07-06T01:54:34;2.03;;;1.42;;
18796;SDS011;9526;52.612;13.300;2022-07-06T01:56:59;5.47;;;1.73;;
18796;SDS011;9526;52.612;13.300;2022-07-06T01:59:22;2.90;;;1.50;;
18796;SDS011;9526;52.612;13.300;2022-07-06T02:01:46;3.20;;;1.20;;
18796;SDS011;9526;52.612;13.300;2022-07-06T02:04:10;3.45;;;1.40;;
18796;SDS011;9526;52.612;13.300;2022-07-06T02:06:34;5.13;;;1.38;;
18796;SDS011;9526;52.612;13.300;2022-07-06T02:08:58;2.30;;;1.67;;
18796;SDS011;9526;52.612;13.300;2022-07-06T02:11:23;3.67;;;1.60;;
18796;SDS011;9526;52.612;13.300;2022-07-06T02:13:47;2.20;;;1.50;;
18796;SDS011;9526;52.612;13.300;2022-07-06T02:16:10;4.60;;;1.67;;
18796;SDS011;9526;52.612;13.300;2022-07-06T02:18:35;3.63;;;1.42;;
18796;SDS011;9526;52.612;13.300;2022-07-06T02:20:59;4.95;;;1.55;;
18796;SDS011;9526;52.612;13.300;2022-07-06T02:23:23;2.92;;;1.80;;
18796;SDS011;9526;52.612;13.300;2022-07-06T02:25:47;7.05;;;1.98;;
18796;SDS011;9526;52.612;13.300;2022-07-06T02:28:13;5.03;;;1.90;;
18796;SDS011;9526;52.612;13.300;2022-07-06T02:30:37;2.47;;;1.90;;
18796;SDS011;9526;52.612;13.300;2022-07-06T02:33:01;2.17;;;1.70;;
18796;SDS011;9526;52.612;13.300;2022-07-06T02:35:26;3.15;;;1.80;;
18796;SDS011;9526;52.612;13.300;2022-07-06T02:37:50;4.30;;;2.65;;
18796;SDS011;9526;52.612;13.300;2022-07-06T02:40:13;5.75;;;2.00;;
18796;SDS011;9526;52.612;13.300;2022-07-06T02:42:37;4.22;;;2.08;;
18796;SDS011;9526;52.612;13.300;2022-07-06T02:45:04;2.78;;;1.75;;
18796;SDS011;9526;52.612;13.300;2022-07-06T02:47:29;4.20;;;1.75;;
18796;SDS011;9526;52.612;13.300;2022-07-06T02:49:53;5.93;;;2.55;;
18796;SDS011;9526;52.612;13.300;2022-07-06T02:52:17;3.70;;;1.85;;
18796;SDS011;9526;52.612;13.300;2022-07-06T02:54:41;3.75;;;2.15;;
18796;SDS011;9526;52.612;13.300;2022-07-06T02:57:05;4.28;;;1.95;;
18796;SDS011;9526;52.612;13.300;2022-07-06T02:59:29;4.40;;;2.22;;
18796;SDS011;9526;52.612;13.300;2022-07-06T03:01:54;2.30;;;1.95;;
18796;SDS011;9526;52.612;13.300;2022-07-06T03:04:17;5.78;;;2.17;;
18796;SDS011;9526;52.612;13.300;2022-07-06T03:06:41;4.82;;;2.30;;
18796;SDS011;9526;52.612;13.300;2022-07-06T03:09:05;6.25;;;2.00;;
18796;SDS011;9526;52.612;13.300;2022-07-06T03:11:29;5.22;;;2.10;;
18796;SDS011;9526;52.612;13.300;2022-07-06T03:13:58;6.57;;;2.83;;
18796;SDS011;9526;52.612;13.300;2022-07-06T03:16:24;4.47;;;2.38;;
18796;SDS011;9526;52.612;13.300;2022-07-06T03:18:50;5.45;;;2.40;;
18796;SDS011;9526;52.612;13.300;2022-07-06T03:21:14;6.90;;;2.40;;
18796;SDS011;9526;52.612;13.300;2022-07-06T03:23:38;4.93;;;2.33;;
18796;SDS011;9526;52.612;13.300;2022-07-06T03:26:02;5.28;;;2.47;;
18796;SDS011;9526;52.612;13.300;2022-07-06T03:28:27;5.45;;;2.30;;
18796;SDS011;9526;52.612;13.300;2022-07-06T03:30:51;3.45;;;2.28;;
18796;SDS011;9526;52.612;13.300;2022-07-06T03:33:16;6.35;;;2.45;;
18796;SDS011;9526;52.612;13.300;2022-07-06T03:35:41;9.43;;;2.15;;
18796;SDS011;9526;52.612;13.300;2022-07-06T03:38:06;6.20;;;2.08;;
18796;SDS011;9526;52.612;13.300;2022-07-06T03:40:30;5.28;;;2.50;;
18796;SDS011;9526;52.612;13.300;2022-07-06T03:42:54;3.53;;;2.33;;
18796;SDS011;9526;52.612;13.300;2022-07-06T03:45:19;4.82;;;2.40;;
18796;SDS011;9526;52.612;13.300;2022-07-06T03:47:43;2.55;;;2.00;;
18796;SDS011;9526;52.612;13.300;2022-07-06T03:50:08;5.88;;;1.98;;
18796;SDS011;9526;52.612;13.300;2022-07-06T03:52:35;5.93;;;1.92;;
18796;SDS011;9526;52.612;13.300;2022-07-06T03:55:02;4.38;;;1.80;;
18796;SDS011;9526;52.612;13.300;2022-07-06T03:57:26;5.13;;;1.92;;
18796;SDS011;9526;52.612;13.300;2022-07-06T03:59:54;3.53;;;2.03;;
18796;SDS011;9526;52.612;13.300;2022-07-06T04:02:18;6.55;;;2.10;;
18796;SDS011;9526;52.612;13.300;2022-07-06T04:04:44;5.10;;;1.80;;
18796;SDS011;9526;52.612;13.300;2022-07-06T04:07:08;3.85;;;1.83;;
18796;SDS011;9526;52.612;13.300;2022-07-06T04:09:33;7.78;;;1.95;;
18796;SDS011;9526;52.612;13.300;2022-07-06T04:11:57;6.10;;;2.20;;
18796;SDS011;9526;52.612;13.300;2022-07-06T04:14:21;4.90;;;1.95;;
18796;SDS011;9526;52.612;13.300;2022-07-06T04:16:45;4.05;;;1.70;;
18796;SDS011;9526;52.612;13.300;2022-07-06T04:19:09;3.83;;;1.80;;
18796;SDS011;9526;52.612;13.300;2022-07-06T04:21:32;4.97;;;1.60;;
18796;SDS011;9526;52.612;13.300;2022-07-06T04:23:57;7.63;;;1.80;;
18796;SDS011;9526;52.612;13.300;2022-07-06T04:26:22;5.38;;;2.03;;
18796;SDS011;9526;52.612;13.300;2022-07-06T04:28:47;5.10;;;1.92;;
18796;SDS011;9526;52.612;13.300;2022-07-06T04:31:11;7.05;;;1.88;;
18796;SDS011;9526;52.612;13.300;2022-07-06T04:33:39;6.28;;;1.95;;
18796;SDS011;9526;52.612;13.300;2022-07-06T04:36:04;7.20;;;2.00;;
18796;SDS011;9526;52.612;13.300;2022-07-06T04:38:33;7.80;;;1.70;;
18796;SDS011;9526;52.612;13.300;2022-07-06T04:41:00;5.03;;;1.95;;
18796;SDS011;9526;52.612;13.300;2022-07-06T04:43:25;5.82;;;1.77;;
18796;SDS011;9526;52.612;13.300;2022-07-06T04:45:49;5.70;;;2.08;;
18796;SDS011;9526;52.612;13.300;2022-07-06T04:48:13;8.52;;;2.05;;
18796;SDS011;9526;52.612;13.300;2022-07-06T04:50:37;5.55;;;1.60;;
18796;SDS011;9526;52.612;13.300;2022-07-06T04:53:06;6.38;;;1.80;;
18796;SDS011;9526;52.612;13.300;2022-07-06T04:55:30;3.83;;;1.70;;
18796;SDS011;9526;52.612;13.300;2022-07-06T04:57:54;4.65;;;1.90;;
18796;SDS011;9526;52.612;13.300;2022-07-06T05:00:20;4.20;;;1.88;;
18796;SDS011;9526;52.612;13.300;2022-07-06T05:02:44;7.47;;;2.25;;
18796;SDS011;9526;52.612;13.300;2022-07-06T05:05:08;5.65;;;1.98;;
18796;SDS011;9526;52.612;13.300;2022-07-06T05:07:32;6.22;;;1.98;;
18796;SDS011;9526;52.612;13.300;2022-07-06T05:10:01;3.25;;;1.70;;
18796;SDS011;9526;52.612;13.300;2022-07-06T05:12:26;3.80;;;1.60;;
18796;SDS011;9526;52.612;13.300;2022-07-06T05:14:50;4.85;;;1.80;;
18796;SDS011;9526;52.612;13.300;2022-07-06T05:17:16;5.00;;;1.50;;
18796;SDS011;9526;52.612;13.300;2022-07-06T05:19:44;7.15;;;1.40;;
18796;SDS011;9526;52.612;13.300;2022-07-06T05:22:08;7.43;;;1.67;;
18796;SDS011;9526;52.612;13.300;2022-07-06T05:24:32;5.25;;;1.70;;
18796;SDS011;9526;52.612;13.300;2022-07-06T05:26:56;5.20;;;2.05;;
18796;SDS011;9526;52.612;13.300;2022-07-06T05:29:20;8.18;;;2.15;;
18796;SDS011;9526;52.612;13.300;2022-07-06T05:31:44;5.85;;;1.80;;
18796;SDS011;9526;52.612;13.300;2022-07-06T05:34:09;5.65;;;1.80;;
18796;SDS011;9526;52.612;13.300;2022-07-06T05:36:34;7.70;;;2.17;;
18796;SDS011;9526;52.612;13.300;2022-07-06T05:38:57;7.55;;;2.33;;
18796;SDS011;9526;52.612;13.300;2022-07-06T05:41:22;5.13;;;2.00;;
18796;SDS011;9526;52.612;13.300;2022-07-06T05:43:53;6.07;;;1.73;;
18796;SDS011;9526;52.612;13.300;2022-07-06T05:46:17;9.13;;;2.90;;
18796;SDS011;9526;52.612;13.300;2022-07-06T05:48:41;6.78;;;2.42;;
18796;SDS011;9526;52.612;13.300;2022-07-06T05:51:24;6.68;;;2.40;;
18796;SDS011;9526;52.612;13.300;2022-07-06T05:53:48;6.57;;;2.13;;
18796;SDS011;9526;52.612;13.300;2022-07-06T05:56:13;3.03;;;1.52;;
18796;SDS011;9526;52.612;13.300;2022-07-06T05:58:37;6.40;;;2.00;;
18796;SDS011;9526;52.612;13.300;2022-07-06T06:01:01;5.95;;;1.70;;
18796;SDS011;9526;52.612;13.300;2022-07-06T06:03:27;5.93;;;1.90;;
18796;SDS011;9526;52.612;13.300;2022-07-06T06:05:50;2.20;;;1.55;;
18796;SDS011;9526;52.612;13.300;2022-07-06T06:08:18;3.53;;;2.20;;
18796;SDS011;9526;52.612;13.300;2022-07-06T06:10:44;6.30;;;1.77;;
18796;SDS011;9526;52.612;13.300;2022-07-06T06:13:12;4.68;;;1.73;;
18796;SDS011;9526;52.612;13.300;2022-07-06T06:15:35;4.10;;;1.85;;
18796;SDS011;9526;52.612;13.300;2022-07-06T06:17:59;4.45;;;2.30;;
18796;SDS011;9526;52.612;13.300;2022-07-06T06:20:25;7.78;;;1.45;;
18796;SDS011;9526;52.612;13.300;2022-07-06T06:22:49;3.75;;;1.58;;
18796;SDS011;9526;52.612;13.300;2022-07-06T06:25:17;5.47;;;1.65;;
18796;SDS011;9526;52.612;13.300;2022-07-06T06:27:42;3.78;;;1.50;;
18796;SDS011;9526;52.612;13.300;2022-07-06T06:30:07;7.30;;;1.90;;
18796;SDS011;9526;52.612;13.300;2022-07-06T06:32:32;5.75;;;2.00;;
18796;SDS011;9526;52.612;13.300;2022-07-06T06:34:56;5.80;;;1.55;;
18796;SDS011;9526;52.612;13.300;2022-07-06T06:37:19;4.22;;;1.65;;
18796;SDS011;9526;52.612;13.300;2022-07-06T06:39:43;6.15;;;1.90;;
18796;SDS011;9526;52.612;13.300;2022-07-06T06:42:08;8.00;;;1.80;;
18796;SDS011;9526;52.612;13.300;2022-07-06T06:44:35;5.85;;;1.63;;
18796;SDS011;9526;52.612;13.300;2022-07-06T06:46:59;5.25;;;1.52;;
18796;SDS011;9526;52.612;13.300;2022-07-06T06:49:23;4.47;;;1.73;;
18796;SDS011;9526;52.612;13.300;2022-07-06T06:51:46;3.30;;;1.25;;
18796;SDS011;9526;52.612;13.300;2022-07-06T06:54:10;5.07;;;1.50;;
18796;SDS011;9526;52.612;13.300;2022-07-06T06:56:34;4.72;;;1.52;;
18796;SDS011;9526;52.612;13.300;2022-07-06T06:58:59;3.70;;;1.20;;
18796;SDS011;9526;52.612;13.300;2022-07-06T07:01:39;4.97;;;1.10;;
18796;SDS011;9526;52.612;13.300;2022-07-06T07:04:03;3.25;;;1.17;;
18796;SDS011;9526;52.612;13.300;2022-07-06T07:06:27;3.05;;;1.20;;
18796;SDS011;9526;52.612;13.300;2022-07-06T07:08:51;4.82;;;1.63;;
18796;SDS011;9526;52.612;13.300;2022-07-06T07:11:16;6.18;;;1.60;;
18796;SDS011;9526;52.612;13.300;2022-07-06T07:13:40;5.50;;;1.70;;
18796;SDS011;9526;52.612;13.300;2022-07-06T07:16:05;3.88;;;1.70;;
18796;SDS011;9526;52.612;13.300;2022-07-06T07:18:29;3.13;;;1.27;;
18796;SDS011;9526;52.612;13.300;2022-07-06T07:20:54;2.20;;;1.00;;
18796;SDS011;9526;52.612;13.300;2022-07-06T07:23:17;4.38;;;1.08;;
18796;SDS011;9526;52.612;13.300;2022-07-06T07:25:41;5.40;;;1.30;;
18796;SDS011;9526;52.612;13.300;2022-07-06T07:28:05;4.30;;;1.40;;
18796;SDS011;9526;52.612;13.300;2022-07-06T07:30:29;3.63;;;1.20;;
18796;SDS011;9526;52.612;13.300;2022-07-06T07:32:54;3.35;;;1.10;;
18796;SDS011;9526;52.612;13.300;2022-07-06T07:35:18;4.78;;;1.00;;
18796;SDS011;9526;52.612;13.300;2022-07-06T07:37:41;3.00;;;1.08;;
18796;SDS011;9526;52.612;13.300;2022-07-06T07:40:05;4.00;;;1.20;;
18796;SDS011;9526;52.612;13.300;2022-07-06T07:42:30;4.88;;;1.35;;
18796;SDS011;9526;52.612;13.300;2022-07-06T07:44:54;3.40;;;0.90;;
18796;SDS011;9526;52.612;13.300;2022-07-06T07:47:17;6.30;;;1.30;;
18796;SDS011;9526;52.612;13.300;2022-07-06T07:49:42;4.13;;;1.10;;
18796;SDS011;9526;52.612;13.300;2022-07-06T07:52:06;4.93;;;1.20;;
18796;SDS011;9526;52.612;13.300;2022-07-06T07:54:30;4.90;;;1.05;;
18796;SDS011;9526;52.612;13.300;2022-07-06T07:56:54;2.92;;;1.00;;
18796;SDS011;9526;52.612;13.300;2022-07-06T07:59:17;5.18;;;1.10;;
18796;SDS011;9526;52.612;13.300;2022-07-06T08:01:41;5.10;;;1.38;;
18796;SDS011;9526;52.612;13.300;2022-07-06T08:04:05;5.22;;;1.30;;
18796;SDS011;9526;52.612;13.300;2022-07-06T08:06:30;2.97;;;1.00;;
18796;SDS011;9526;52.612;13.300;2022-07-06T08:08:54;3.58;;;1.08;;
18796;SDS011;9526;52.612;13.300;2022-07-06T08:11:18;4.13;;;1.00;;
18796;SDS011;9526;52.612;13.300;2022-07-06T08:13:41;2.78;;;1.48;;
18796;SDS011;9526;52.612;13.300;2022-07-06T08:16:05;4.05;;;1.00;;
18796;SDS011;9526;52.612;13.300;2022-07-06T08:18:30;5.40;;;1.27;;
18796;SDS011;9526;52.612;13.300;2022-07-06T08:20:54;1.30;;;0.80;;
18796;SDS011;9526;52.612;13.300;2022-07-06T08:23:39;3.70;;;1.33;;
18796;SDS011;9526;52.612;13.300;2022-07-06T08:26:03;4.03;;;1.00;;
18796;SDS011;9526;52.612;13.300;2022-07-06T08:28:27;6.28;;;1.10;;
18796;SDS011;9526;52.612;13.300;2022-07-06T08:30:51;2.80;;;0.90;;
18796;SDS011;9526;52.612;13.300;2022-07-06T08:33:16;3.22;;;0.90;;
18796;SDS011;9526;52.612;13.300;2022-07-06T08:35:39;2.30;;;0.80;;
18796;SDS011;9526;52.612;13.300;2022-07-06T08:38:03;2.95;;;1.10;;
18796;SDS011;9526;52.612;13.300;2022-07-06T08:40:31;2.88;;;1.10;;
18796;SDS011;9526;52.612;13.300;2022-07-06T08:42:58;4.85;;;0.80;;
18796;SDS011;9526;52.612;13.300;2022-07-06T08:45:23;3.70;;;1.20;;
18796;SDS011;9526;52.612;13.300;2022-07-06T08:47:49;2.63;;;1.08;;
18796;SDS011;9526;52.612;13.300;2022-07-06T08:50:13;4.93;;;1.20;;
18796;SDS011;9526;52.612;13.300;2022-07-06T08:52:37;2.97;;;0.90;;
18796;SDS011;9526;52.612;13.300;2022-07-06T08:55:02;4.28;;;1.00;;
18796;SDS011;9526;52.612;13.300;2022-07-06T08:57:28;4.68;;;1.10;;
18796;SDS011;9526;52.612;13.300;2022-07-06T08:59:52;3.90;;;0.95;;
18796;SDS011;9526;52.612;13.300;2022-07-06T09:02:16;2.00;;;1.10;;
18796;SDS011;9526;52.612;13.300;2022-07-06T09:04:41;2.05;;;1.40;;
18796;SDS011;9526;52.612;13.300;2022-07-06T09:07:06;1.88;;;0.88;;
18796;SDS011;9526;52.612;13.300;2022-07-06T09:09:30;3.63;;;0.82;;
18796;SDS011;9526;52.612;13.300;2022-07-06T09:11:54;2.85;;;0.90;;
18796;SDS011;9526;52.612;13.300;2022-07-06T09:14:25;4.45;;;0.75;;
18796;SDS011;9526;52.612;13.300;2022-07-06T09:16:51;1.75;;;0.70;;
18796;SDS011;9526;52.612;13.300;2022-07-06T09:19:24;2.35;;;0.70;;
18796;SDS011;9526;52.612;13.300;2022-07-06T09:21:48;2.60;;;0.73;;
18796;SDS011;9526;52.612;13.300;2022-07-06T09:24:12;3.40;;;0.70;;
18796;SDS011;9526;52.612;13.300;2022-07-06T09:26:36;2.03;;;0.85;;
18796;SDS011;9526;52.612;13.300;2022-07-06T09:29:00;2.05;;;0.93;;
18796;SDS011;9526;52.612;13.300;2022-07-06T09:31:25;1.65;;;0.70;;
18796;SDS011;9526;52.612;13.300;2022-07-06T09:33:55;1.02;;;0.70;;
18796;SDS011;9526;52.612;13.300;2022-07-06T09:36:37;3.25;;;0.85;;
18796;SDS011;9526;52.612;13.300;2022-07-06T09:39:17;2.47;;;0.70;;
18796;SDS011;9526;52.612;13.300;2022-07-06T09:41:44;1.75;;;0.68;;
18796;SDS011;9526;52.612;13.300;2022-07-06T09:44:09;0.95;;;0.75;;
18796;SDS011;9526;52.612;13.300;2022-07-06T09:46:38;2.88;;;0.77;;
18796;SDS011;9526;52.612;13.300;2022-07-06T09:49:04;6.95;;;0.85;;
18796;SDS011;9526;52.612;13.300;2022-07-06T09:51:30;2.13;;;1.08;;
18796;SDS011;9526;52.612;13.300;2022-07-06T09:53:54;1.45;;;0.68;;
18796;SDS011;9526;52.612;13.300;2022-07-06T09:56:21;10.48;;;1.15;;
18796;SDS011;9526;52.612;13.300;2022-07-06T09:58:58;3.72;;;0.80;;
18796;SDS011;9526;52.612;13.300;2022-07-06T10:01:26;3.55;;;0.88;;
18796;SDS011;9526;52.612;13.300;2022-07-06T10:03:52;2.75;;;0.88;;
18796;SDS011;9526;52.612;13.300;2022-07-06T10:06:16;2.78;;;0.80;;
18796;SDS011;9526;52.612;13.300;2022-07-06T10:08:40;2.95;;;0.90;;
18796;SDS011;9526;52.612;13.300;2022-07-06T10:11:04;4.95;;;0.80;;
18796;SDS011;9526;52.612;13.300;2022-07-06T10:13:28;2.63;;;1.10;;
18796;SDS011;9526;52.612;13.300;2022-07-06T10:15:53;3.58;;;1.25;;
18796;SDS011;9526;52.612;13.300;2022-07-06T10:18:19;3.85;;;1.00;;
18796;SDS011;9526;52.612;13.300;2022-07-06T10:20:45;2.33;;;0.63;;
18796;SDS011;9526;52.612;13.300;2022-07-06T10:23:08;3.90;;;0.80;;
18796;SDS011;9526;52.612;13.300;2022-07-06T10:25:33;4.72;;;1.13;;
18796;SDS011;9526;52.612;13.300;2022-07-06T10:27:57;4.80;;;0.80;;
18796;SDS011;9526;52.612;13.300;2022-07-06T10:30:22;0.98;;;0.65;;
18796;SDS011;9526;52.612;13.300;2022-07-06T10:32:49;2.05;;;0.73;;
18796;SDS011;9526;52.612;13.300;2022-07-06T10:35:13;2.15;;;0.70;;
18796;SDS011;9526;52.612;13.300;2022-07-06T10:37:40;5.00;;;0.68;;
18796;SDS011;9526;52.612;13.300;2022-07-06T10:40:13;2.72;;;0.80;;
18796;SDS011;9526;52.612;13.300;2022-07-06T10:42:58;1.25;;;0.60;;
18796;SDS011;9526;52.612;13.300;2022-07-06T10:48:17;1.33;;;0.80;;
18796;SDS011;9526;52.612;13.300;2022-07-06T10:50:46;1.08;;;0.60;;
18796;SDS011;9526;52.612;13.300;2022-07-06T10:53:13;6.95;;;0.88;;
18796;SDS011;9526;52.612;13.300;2022-07-06T10:55:39;1.95;;;0.90;;
18796;SDS011;9526;52.612;13.300;2022-07-06T10:58:05;1.90;;;0.70;;
18796;SDS011;9526;52.612;13.300;2022-07-06T11:00:48;2.60;;;0.70;;
18796;SDS011;9526;52.612;13.300;2022-07-06T11:06:01;1.70;;;0.70;;
18796;SDS011;9526;52.612;13.300;2022-07-06T11:08:45;0.70;;;0.60;;
18796;SDS011;9526;52.612;13.300;2022-07-06T11:11:18;1.48;;;0.50;;
18796;SDS011;9526;52.612;13.300;2022-07-06T11:13:46;8.77;;;0.98;;
18796;SDS011;9526;52.612;13.300;2022-07-06T11:16:12;2.03;;;0.70;;
18796;SDS011;9526;52.612;13.300;2022-07-06T11:18:40;1.65;;;0.80;;
18796;SDS011;9526;52.612;13.300;2022-07-06T11:21:17;2.63;;;0.60;;
18796;SDS011;9526;52.612;13.300;2022-07-06T11:23:46;3.13;;;0.77;;
18796;SDS011;9526;52.612;13.300;2022-07-06T11:26:12;2.20;;;1.02;;
18796;SDS011;9526;52.612;13.300;2022-07-06T11:28:36;2.70;;;0.80;;
18796;SDS011;9526;52.612;13.300;2022-07-06T11:31:00;1.83;;;0.70;;
18796;SDS011;9526;52.612;13.300;2022-07-06T11:33:27;3.40;;;0.90;;
18796;SDS011;9526;52.612;13.300;2022-07-06T11:35:52;3.30;;;1.05;;
18796;SDS011;9526;52.612;13.300;2022-07-06T11:38:25;1.90;;;0.80;;
18796;SDS011;9526;52.612;13.300;2022-07-06T11:40:54;2.08;;;0.70;;
18796;SDS011;9526;52.612;13.300;2022-07-06T11:43:17;1.33;;;0.70;;
18796;SDS011;9526;52.612;13.300;2022-07-06T11:45:41;2.63;;;0.70;;
18796;SDS011;9526;52.612;13.300;2022-07-06T11:48:11;3.78;;;0.60;;
18796;SDS011;9526;52.612;13.300;2022-07-06T11:50:36;1.63;;;0.55;;
18796;SDS011;9526;52.612;13.300;2022-07-06T11:52:59;1.52;;;0.65;;
18796;SDS011;9526;52.612;13.300;2022-07-06T11:55:23;2.65;;;0.80;;
18796;SDS011;9526;52.612;13.300;2022-07-06T11:57:48;2.15;;;0.70;;
18796;SDS011;9526;52.612;13.300;2022-07-06T12:00:20;3.00;;;0.90;;
18796;SDS011;9526;52.612;13.300;2022-07-06T12:02:58;2.55;;;0.70;;
18796;SDS011;9526;52.612;13.300;2022-07-06T12:05:28;2.53;;;0.80;;
18796;SDS011;9526;52.612;13.300;2022-07-06T12:08:02;3.10;;;0.93;;
18796;SDS011;9526;52.612;13.300;2022-07-06T12:10:30;2.85;;;0.93;;
18796;SDS011;9526;52.612;13.300;2022-07-06T12:13:03;3.72;;;0.60;;
18796;SDS011;9526;52.612;13.300;2022-07-06T12:15:27;1.85;;;0.60;;
18796;SDS011;9526;52.612;13.300;2022-07-06T12:17:51;2.05;;;0.68;;
18796;SDS011;9526;52.612;13.300;2022-07-06T12:20:15;1.42;;;0.60;;
18796;SDS011;9526;52.612;13.300;2022-07-06T12:22:40;2.30;;;0.60;;
18796;SDS011;9526;52.612;13.300;2022-07-06T12:25:06;1.95;;;0.70;;
18796;SDS011;9526;52.612;13.300;2022-07-06T12:27:33;2.28;;;0.60;;
18796;SDS011;9526;52.612;13.300;2022-07-06T12:30:07;0.88;;;0.50;;
18796;SDS011;9526;52.612;13.300;2022-07-06T12:32:32;3.40;;;0.60;;
18796;SDS011;9526;52.612;13.300;2022-07-06T12:35:04;1.92;;;0.50;;
18796;SDS011;9526;52.612;13.300;2022-07-06T12:37:29;1.83;;;0.47;;
18796;SDS011;9526;52.612;13.300;2022-07-06T12:39:53;1.90;;;0.75;;
18796;SDS011;9526;52.612;13.300;2022-07-06T12:42:17;1.38;;;0.60;;
18796;SDS011;9526;52.612;13.300;2022-07-06T12:44:41;3.00;;;0.85;;
18796;SDS011;9526;52.612;13.300;2022-07-06T12:47:10;2.38;;;0.70;;
18796;SDS011;9526;52.612;13.300;2022-07-06T12:49:34;2.70;;;0.70;;
18796;SDS011;9526;52.612;13.300;2022-07-06T12:52:00;2.45;;;0.60;;
18796;SDS011;9526;52.612;13.300;2022-07-06T12:54:31;3.00;;;0.60;;
18796;SDS011;9526;52.612;13.300;2022-07-06T12:57:07;2.10;;;0.57;;
18796;SDS011;9526;52.612;13.300;2022-07-06T12:59:38;2.65;;;0.50;;
18796;SDS011;9526;52.612;13.300;2022-07-06T13:02:05;1.48;;;0.60;;
18796;SDS011;9526;52.612;13.300;2022-07-06T13:04:32;1.45;;;0.50;;
18796;SDS011;9526;52.612;13.300;2022-07-06T13:06:56;1.58;;;0.70;;
18796;SDS011;9526;52.612;13.300;2022-07-06T13:09:28;1.35;;;0.50;;
18796;SDS011;9526;52.612;13.300;2022-07-06T13:11:52;2.90;;;0.68;;
18796;SDS011;9526;52.612;13.300;2022-07-06T13:14:16;1.17;;;0.50;;
18796;SDS011;9526;52.612;13.300;2022-07-06T13:16:41;0.73;;;0.50;;
18796;SDS011;9526;52.612;13.300;2022-07-06T13:19:06;1.60;;;0.52;;
18796;SDS011;9526;52.612;13.300;2022-07-06T13:21:31;5.47;;;0.60;;
18796;SDS011;9526;52.612;13.300;2022-07-06T13:23:55;1.55;;;0.60;;
18796;SDS011;9526;52.612;13.300;2022-07-06T13:26:19;1.88;;;0.45;;
18796;SDS011;9526;52.612;13.300;2022-07-06T13:28:43;0.45;;;0.30;;
18796;SDS011;9526;52.612;13.300;2022-07-06T13:31:07;1.33;;;0.30;;
18796;SDS011;9526;52.612;13.300;2022-07-06T13:33:33;2.30;;;0.50;;
18796;SDS011;9526;52.612;13.300;2022-07-06T13:35:56;0.90;;;0.45;;
18796;SDS011;9526;52.612;13.300;2022-07-06T13:38:21;1.70;;;0.30;;
18796;SDS011;9526;52.612;13.300;2022-07-06T13:40:45;3.92;;;1.50;;
18796;SDS011;9526;52.612;13.300;2022-07-06T13:43:09;2.20;;;0.77;;
18796;SDS011;9526;52.612;13.300;2022-07-06T13:45:32;2.08;;;1.63;;
18796;SDS011;9526;52.612;13.300;2022-07-06T13:47:56;1.98;;;0.50;;
18796;SDS011;9526;52.612;13.300;2022-07-06T13:50:20;1.23;;;0.43;;
18796;SDS011;9526;52.612;13.300;2022-07-06T13:52:44;0.50;;;0.30;;
18796;SDS011;9526;52.612;13.300;2022-07-06T13:55:09;2.55;;;0.50;;
18796;SDS011;9526;52.612;13.300;2022-07-06T13:57:33;1.10;;;0.40;;
18796;SDS011;9526;52.612;13.300;2022-07-06T13:59:57;1.75;;;0.35;;
18796;SDS011;9526;52.612;13.300;2022-07-06T14:02:21;3.63;;;0.50;;
18796;SDS011;9526;52.612;13.300;2022-07-06T14:04:45;3.22;;;0.50;;
18796;SDS011;9526;52.612;13.300;2022-07-06T14:07:08;1.55;;;0.32;;
18796;SDS011;9526;52.612;13.300;2022-07-06T14:09:35;2.72;;;0.70;;
18796;SDS011;9526;52.612;13.300;2022-07-06T14:12:02;1.60;;;0.40;;
18796;SDS011;9526;52.612;13.300;2022-07-06T14:14:27;0.85;;;0.50;;
18796;SDS011;9526;52.612;13.300;2022-07-06T14:16:50;3.28;;;0.50;;
18796;SDS011;9526;52.612;13.300;2022-07-06T14:19:16;1.48;;;0.40;;
18796;SDS011;9526;52.612;13.300;2022-07-06T14:21:42;2.78;;;0.68;;
18796;SDS011;9526;52.612;13.300;2022-07-06T14:24:07;1.70;;;0.40;;
18796;SDS011;9526;52.612;13.300;2022-07-06T14:26:31;3.03;;;0.30;;
18796;SDS011;9526;52.612;13.300;2022-07-06T14:28:56;2.17;;;0.50;;
18796;SDS011;9526;52.612;13.300;2022-07-06T14:31:20;1.02;;;0.60;;
18796;SDS011;9526;52.612;13.300;2022-07-06T14:33:44;0.93;;;0.38;;
18796;SDS011;9526;52.612;13.300;2022-07-06T14:36:08;2.72;;;0.45;;
18796;SDS011;9526;52.612;13.300;2022-07-06T14:38:31;1.25;;;0.68;;
18796;SDS011;9526;52.612;13.300;2022-07-06T14:40:55;3.13;;;0.63;;
18796;SDS011;9526;52.612;13.300;2022-07-06T14:43:19;1.02;;;0.40;;